D/T METAR WX W/DIR W/SPE G/SPE TEMP DEWP
25/02/20 13:55 EGUN 251355Z 25009G16KT 9999 SCT050 BKN090 08/00 A2942 RMK SLPNO WND DATA ESTMD ALSTG ESTMD RVRNO . WSW (250°) 10.4mph 18.4mph 8°C 0°C
25/02/20 12:55 EGUN 251255Z 27012G19KT 9999 BKN040 08/M01 A2946 RMK SLPNO WND DATA ESTMD ALSTG ESTMD RVRNO . W (270°) 13.8mph 21.9mph 8°C -1°C
25/02/20 11:55 EGUN 251155Z 25012G20KT 9999 BKN040 08/M01 A2948 RMK SLPNO WND DATA ESTMD ALSTG ESTMD RVRNO . WSW (250°) 13.8mph 23.0mph 8°C -1°C
25/02/20 10:55 EGUN 251055Z 25017G20KT 9999 BKN040 07/01 A2948 RMK SLPNO PK WND 26027/17 WND DATA ESTMD ALSTG ESTMD RVRNO . WSW (250°) 19.6mph 23.0mph 7°C 1°C
25/02/20 09:55 EGUN 250955Z 26018G22KT 9999 SCT025 BKN030 07/01 A2949 RMK SLPNO PK WND 26027/49 WND DATA ESTMD ALSTG ESTMD RVRNO . W (260°) 20.7mph 25.3mph 7°C 1°C
25/02/20 08:55 EGUN 250855Z 24013G16KT 9999 FEW045 06/02 A2951 RMK SLPNO WND DATA ESTMD ALSTG ESTMD RVRNO . WSW (240°) 15.0mph 18.4mph 6°C 2°C
25/02/20 07:56 EGUN 250756Z 23013KT 9999 FEW150 04/01 A2951 RMK SLPNO WND DATA ESTMD ALSTG ESTMD RVRNO SW (230°) 15.0mph 4°C 1°C
25/02/20 06:58 EGUN 250658Z 23012G17KT 9999 CLR 04/00 A2951 RMK SLPNO WND DATA ESTMD ALSTG ESTMD RVRNO SW (230°) 13.8mph 19.6mph 4°C 0°C
25/02/20 05:56 EGUN 250556Z 25010G15KT 9999 CLR 03/00 A2953 RMK SLPNO WND DATA ESTMD ALSTG ESTMD RVRNO WSW (250°) 11.5mph 17.3mph 3°C 0°C
25/02/20 04:56 EGUN 250456Z 24014KT 9999 CLR 04/01 A2955 RMK SLPNO WND DATA ESTMD ALSTG ESTMD RVRNO WSW (240°) 16.1mph 4°C 1°C
25/02/20 03:57 EGUN 250357Z 25011KT 9999 CLR 04/02 A2955 RMK SLPNO WND DATA ESTMD ALSTG ESTMD RVRNO WSW (250°) 12.7mph 4°C 2°C
25/02/20 02:56 EGUN 250256Z 25015G20KT 9999 FEW030 SCT040 05/02 A2956 RMK SLPNO WND DATA ESTMD ALSTG ESTMD RVRNO WSW (250°) 17.3mph 23.0mph 5°C 2°C
25/02/20 01:55 EGUN 250155Z 25015KT 9999 BKN050 06/02 A2957 RMK SLPNO WND DATA ESTMD ALSTG ESTMD RVRNO WSW (250°) 17.3mph 6°C 2°C
25/02/20 00:56 EGUN 250056Z 25012G16KT 9999 CLR 05/01 A2958 RMK SLPNO WND DATA ESTMD ALSTG ESTMD RVRNO WSW (250°) 13.8mph 18.4mph 5°C 1°C
24/02/20 23:56 EGUN 242356Z 25010KT 9999 CLR 06/01 A2958 RMK SLPNO WND DATA ESTMD ALSTG ESTMD RVRNO WSW (250°) 11.5mph 6°C 1°C
24/02/20 22:56 EGUN 242256Z 26012G19KT 9999 CLR 06/01 A2958 RMK SLPNO WND DATA ESTMD ALSTG ESTMD RVRNO W (260°) 13.8mph 21.9mph 6°C 1°C
24/02/20 21:56 EGUN 242156Z 27010KT 9999 CLR 07/01 A2959 RMK SLPNO WND DATA ESTMD ALSTG ESTMD RVRNO W (270°) 11.5mph 7°C 1°C
24/02/20 20:56 EGUN 242056Z 28027G29KT 9999 CLR 08/01 A2959 RMK PK WND 29033/50 SLPNO WND DATA ESTMD ALSTG ESTMD RVRNO W (280°) 31.1mph 33.4mph 8°C 1°C
24/02/20 19:55 EGUN 241955Z 27023G28KT 9999 BKN040 10/04 A2956 RMK SLP016 WND DATA ESTMD ALTSG ESTMD RVRNO W (270°) 26.5mph 32.2mph 10°C 4°C
24/02/20 18:56 EGUN 241856Z 24018G28KT 9999 FEW026 SCT035 SCT045 11/07 A2953 RMK PK WND 24028/00 SLP003 WND DATA ESTMD ALTSG ESTMD WSW (240°) 20.7mph 32.2mph 11°C 7°C
24/02/20 17:56 EGUN 241756Z 24017G29KT 9999 SCT055 11/08 A2952 RMK SLP999 WND DATA ESTMD ALTSG ESTMD RVRNO WSW (240°) 19.6mph 33.4mph 11°C 8°C
24/02/20 16:55 EGUN 241655Z 24020G30KT 9999 FEW055 12/09 A2950 RMK SLP995 WND DATA ESTMD ALTSG ESTMD RVRNO WSW (240°) 23.0mph 34.5mph 12°C 9°C
24/02/20 15:57 EGUN 241557Z 24027G32KT 9999 BKN016 12/10 A2952 RMK SLP000 WND DATA ESTMD ALTSG ESTMD RVRNO WSW (240°) 31.1mph 36.8mph 12°C 10°C
24/02/20 14:56 EGUN 241456Z 24022G32KT 9999 OVC018 12/10 A2953 RMK PK WND 20032/1359 SLP003 WND DATA ESTMD ALTSG ESTMD WSW (240°) 25.3mph 36.8mph 12°C 10°C
24/02/20 13:56 EGUN 241356Z 23019G30KT 9999 BKN017 12/10 A2956 RMK SLP011 WND DATA ESTMD ALTSG ESTMD RVRNO SW (230°) 21.9mph 34.5mph 12°C 10°C
24/02/20 13:49 EGUN 241349Z 23019G35KT 9999 BKN017 12/10 A2987 RMK SLP012 WND DATA ESTMD ALTSG ESTMD RVRNO SW (230°) 21.9mph 40.3mph 12°C 10°C
24/02/20 12:55 EGUN 241255Z 23018G26KT 9999 BKN015 11/09 A2960 RMK SLP023 WND DATA ESTMD ALTSG ESTMD RVRNO SW (230°) 20.7mph 29.9mph 11°C 9°C
24/02/20 11:55 EGUN 241155Z 22020G29KT 9999 BKN015 OVC021 11/10 A2961 RMK SLP031 WND DATA ESTMD ALTSG ESTMD SW (220°) 23.0mph 33.4mph 11°C 10°C
24/02/20 10:56 EGUN 241056Z 22022G28KT 9000 -RA BKN014 BKN018 11/09 A2966 RMK SLP043 ALSTG ESTMD RVRNO -RA SW (220°) 25.3mph 32.2mph 11°C 9°C
24/02/20 09:55 EGUN 240955Z 23016G25KT 9999 OVC016 10/09 A2968 RMK SLP053 WND DATA ESTMD ALTSG ESTMD RVRNO SW (230°) 18.4mph 28.8mph 10°C 9°C
24/02/20 08:56 EGUN 240856Z 21012G22KT 9999 BKN008 08/07 A2971 RMK SLP065 WND DATA ESTMD ALTSG ESTMD RVRNO SSW (210°) 13.8mph 25.3mph 8°C 7°C
24/02/20 07:56 EGUN 240756Z 15011G18KT 9999 -DZ BKN006 OVC016 06/06 A2979 RMK SLPNO WND DATA ESTMD ALSTG ESTMD RVRNO -DZ SSE (150°) 12.7mph 20.7mph 6°C 6°C
24/02/20 06:56 EGUN 240656Z 16012G18KT 9000 -SHRA OVC007 05/05 A2985 RMK PK WND 13026/28 WND SLPNO WND DATA ESTMD ALSTG ESTMD RVRNO -SHRA SSE (160°) 13.8mph 20.7mph 5°C 5°C
24/02/20 06:01 EGUN 240601Z 13012G18KT 9000 -SHRA BKN007 05/04 A2992 RMK SLPNO WND DATA ESTMD ALSTG ESTMD RVRNO -SHRA SE (130°) 13.8mph 20.7mph 5°C 4°C
24/02/20 04:56 EGUN 240456Z COR 17008G15KT 9999 -DZ OVC035 05/00 A3000 RMK SLPNO WND DATA ESTMD ALSTG ESTMD RVRNO COR 0458 -DZ S (170°) 9.2mph 17.3mph 5°C 0°C
24/02/20 03:56 EGUN 240356Z 15005KT 9999 BKN045 05/M01 A3006 RMK SLPNO WND DATA ESTMD ALSTG ESTMD RVRNO SSE (150°) 5.8mph 5°C -1°C
24/02/20 02:56 EGUN 240256Z 17002KT 9999 SCT060 OVC100 05/00 A3012 RMK SLPNO WND DATA ESTMD ALSTG ESTMD RVRNO S (170°) 2.3mph 5°C 0°C
24/02/20 01:56 EGUN 240156Z 17003KT 9999 SCT070 OVC100 05/00 A3016 RMK SLPNO WND DATA ESTMD ALSTG ESTMD RVRNO S (170°) 3.5mph 5°C 0°C
24/02/20 00:59 EGUN 240059Z 00000KT 9999 BKN080 BKN100 05/00 A3018 RMK SLPNO WND DATA ESTMD ALSTG ESTMD RVRNO N (0°) 5°C 0°C
23/02/20 23:56 EGUN 232356Z 23006KT 9999 BKN150 03/00 A3020 RMK SLPNO WND DATA ESTMD ALSTG ESTMD RVRNO SW (230°) 6.9mph 3°C 0°C
23/02/20 22:56 EGUN 232256Z 22008KT 9999 SCT120 03/00 A3019 RMK SLPNO WND DATA ESTMD ALSTG ESTMD RVRNO SW (220°) 9.2mph 3°C 0°C
23/02/20 21:56 EGUN 232156Z 24004KT 9999 SCT140 05/00 A3020 RMK SLPNO WND DATA ESTMD ALSTG ESTMD RVRNO WSW (240°) 4.6mph 5°C 0°C
23/02/20 20:58 EGUN 232058Z 26006KT 9999 FEW030 BKN170 05/00 A3019 RMK SLPNO WND DATA ESTMD ALSTG ESTMD RVRNO W (260°) 6.9mph 5°C 0°C
23/02/20 19:57 EGUN 231957Z 27008KT 9999 SCT200 05/M01 A3018 RMK SLP224 WND DATA ESTMD ALTSG ESTMD RVRNO W (270°) 9.2mph 5°C -1°C
23/02/20 18:56 EGUN 231856Z 27008KT 9999 CLR 06/M01 A3017 RMK SLP220 WND DATA ESTMD ALTSG ESTMD T00611011 W (270°) 9.2mph 6.1°C -1.1°C
23/02/20 17:56 EGUN 231756Z 28008KT 9999 FEW180 06/00 A3013 RMK SLP209 WND DATA ESTMD ALTSG ESTMD T00611002 $ W (280°) 9.2mph 6.1°C -0.2°C
23/02/20 16:56 EGUN 231656Z 30014KT 9999 FEW210 08/M02 A3008 RMK SLP190 WND DATA ESTMD ALTSG ESTMD RVRNO WNW (300°) 16.1mph 8°C -2°C
23/02/20 15:56 EGUN 231556Z 29017G23KT 9999 CLR 09/M01 A3003 RMK AO2 PK WND 28026/41 SLP173 WND DATA ESTMD ALTSG ESTMD T00871014 WNW (290°) 19.6mph 26.5mph 8.7°C -1.4°C